North Haven, CT (06473)

9:23 PM EST on November 28, 2014 (GMT -0500)
North Haven High School | Change Station
CLOSE
Current Station
Personal Weather Station
Location: North Haven, CT
Elevation: 18 ft
Nearby Weather Stations

Elev 18 ft 41.37 °N, 72.86 °W | Updated 8 minutes ago

Clear
Clear
27.6 °F
Feels Like 28 °F
N
3.0
Wind Variable Wind from NNW
Gusts 5.0 mph

Today
High -- | Low -- °F
--% Chance of Precip.
Yesterday
High -- | Low -- °F
Precip. -- in
6:54 AM 4:23 PM
Waxing Crescent, 46% visible
Pressure 30.25 in
Visibility 10.0 miles
Clouds Few 3500 ft
Windchill 28 °F
Dew Point 18 °F
Humidity 66%
Rainfall 0.00 in
Snow Depth Not available.
UV 0 out of 12
Pollen .10 out of 12
Air Quality Not available.
Flu Activity Not available.
METAR KHVN 290153Z 34005KT 10SM FEW035 00/M08 A3025 RMK AO2 SLP242 T00001083

More Conditions Fewer Conditions

Pressure 30.25 in
Visibility 10.0 miles
Clouds Few 3500 ft
Windchill 28 °F
Dew Point 18 °F
Humidity 66%
Rainfall 0.00 in
Snow Depth Not available.
UV 0 out of 12
Pollen .10 out of 12
Air Quality Not available.
Flu Activity Not available.
METAR KHVN 290153Z 34005KT 10SM FEW035 00/M08 A3025 RMK AO2 SLP242 T00001083

More Conditions Fewer Conditions

10-Day Weather Forecast

Almanac

Astronomy

Nov. 28, 2014 Rise Set
Actual Time
Civil Twilight
Nautical Twilight
Astronomical Twilight
Moon
Length of Visible Light
Length of Day
Tomorrow will be .
, % of the Moon is Illuminated

Today's Extremes

State Highs State Lows

Community

WunderPhotos

Upload Photos

1,774,375 photos uploaded!

WunderBlogs® & News

Nearby

Air Quality

  Air Quality AQ Index Pollutant
Not available.

Snow Depth

Station Depth Elevation

Earthquake Activity

City Distance Mag. Time & Date
Minimum magnitude displayed is 2.5.

Coastal Water Temperatures

Place Temperature

Nearby Weather Stations